createdAt,value
2023-03-26T00:00:06.106Z,3.20
2023-03-26T00:02:32.468Z,3.20
2023-03-26T00:04:58.892Z,3.70
2023-03-26T00:07:25.225Z,3.10
2023-03-26T00:09:51.462Z,3.03
2023-03-26T00:12:18.709Z,2.88
2023-03-26T00:14:44.985Z,4.13
2023-03-26T00:17:11.320Z,3.95
2023-03-26T00:19:37.995Z,3.38
2023-03-26T00:22:04.333Z,3.20
2023-03-26T00:24:30.730Z,3.83
2023-03-26T00:26:57.760Z,3.22
2023-03-26T00:29:24.691Z,3.25
2023-03-26T00:31:51.026Z,2.90
2023-03-26T00:34:18.200Z,3.25
2023-03-26T00:36:46.762Z,3.35
2023-03-26T00:39:14.079Z,3.55
2023-03-26T00:41:43.174Z,3.22
2023-03-26T00:44:09.816Z,3.40
2023-03-26T00:46:36.384Z,3.78
2023-03-26T00:49:03.885Z,3.95
2023-03-26T00:51:30.530Z,3.50
2023-03-26T00:53:57.521Z,3.92
2023-03-26T00:56:24.108Z,3.13
2023-03-26T00:58:50.580Z,3.13
2023-03-26T01:01:27.513Z,2.97
2023-03-26T01:04:08.368Z,3.00
2023-03-26T01:06:37.176Z,3.03
2023-03-26T01:09:14.532Z,3.30
2023-03-26T01:11:40.990Z,3.28
2023-03-26T01:14:11.409Z,3.00
2023-03-26T01:16:46.037Z,2.90
2023-03-26T01:19:16.737Z,3.38
2023-03-26T01:21:43.077Z,3.10
2023-03-26T01:24:10.049Z,2.70
2023-03-26T01:26:55.631Z,3.40
2023-03-26T01:29:27.762Z,2.88
2023-03-26T01:32:09.945Z,3.00
2023-03-26T01:34:43.183Z,2.85
2023-03-26T01:37:20.876Z,3.60
2023-03-26T01:39:49.545Z,3.13
2023-03-26T01:42:19.804Z,3.38
2023-03-26T01:44:52.589Z,3.05
2023-03-26T01:47:19.414Z,3.28
2023-03-26T01:49:45.728Z,2.90
2023-03-26T01:52:14.467Z,3.70
2023-03-26T01:54:41.299Z,3.60
2023-03-26T01:57:17.053Z,3.20
2023-03-26T01:59:49.354Z,3.13
2023-03-26T02:02:35.922Z,3.17
2023-03-26T02:05:14.392Z,3.10
2023-03-26T02:07:51.163Z,2.83
2023-03-26T02:10:21.562Z,2.50
2023-03-26T02:12:47.967Z,2.75
2023-03-26T02:15:14.213Z,2.80
2023-03-26T02:17:40.696Z,2.78
2023-03-26T02:20:11.561Z,3.15
2023-03-26T02:22:40.966Z,3.00
2023-03-26T02:25:09.238Z,2.75
2023-03-26T02:27:36.108Z,2.60
2023-03-26T02:30:02.837Z,2.70
2023-03-26T02:32:29.460Z,2.65
2023-03-26T02:34:55.825Z,2.80
2023-03-26T02:37:22.168Z,2.40
2023-03-26T02:39:48.450Z,2.45
2023-03-26T02:42:16.173Z,2.50
2023-03-26T02:44:42.507Z,2.40
2023-03-26T02:47:08.876Z,3.00
2023-03-26T02:49:35.204Z,2.80
2023-03-26T02:52:01.654Z,2.80
2023-03-26T02:54:27.951Z,2.60
2023-03-26T02:56:54.268Z,2.90
2023-03-26T02:59:20.825Z,2.78
2023-03-26T03:01:47.105Z,2.33
2023-03-26T03:04:13.358Z,2.45
2023-03-26T03:06:40.494Z,2.25
2023-03-26T03:09:08.499Z,2.50
2023-03-26T03:11:35.412Z,2.50
2023-03-26T03:14:01.912Z,2.83
2023-03-26T03:16:28.533Z,2.78
2023-03-26T03:18:57.838Z,2.20
2023-03-26T03:21:25.488Z,2.28
2023-03-26T03:23:51.874Z,2.60
2023-03-26T03:26:21.757Z,2.65
2023-03-26T03:28:49.073Z,2.47
2023-03-26T03:31:16.539Z,2.40
2023-03-26T03:33:43.071Z,2.05
2023-03-26T03:36:10.532Z,2.55
2023-03-26T03:38:47.461Z,2.45
2023-03-26T03:41:13.782Z,2.47
2023-03-26T03:43:40.243Z,2.30
2023-03-26T03:46:06.819Z,2.10
2023-03-26T03:48:33.456Z,2.00
2023-03-26T03:50:59.808Z,2.22
2023-03-26T03:53:26.473Z,2.08
2023-03-26T03:55:54.262Z,2.13
2023-03-26T03:58:22.349Z,2.17
2023-03-26T04:00:49.829Z,2.42
2023-03-26T04:03:16.696Z,2.03
2023-03-26T04:05:49.301Z,2.33
2023-03-26T04:08:16.839Z,2.22
2023-03-26T04:10:43.919Z,1.58
2023-03-26T04:13:13.940Z,2.13
2023-03-26T04:15:40.982Z,1.95
2023-03-26T04:18:10.493Z,2.35
2023-03-26T04:20:38.278Z,2.40
2023-03-26T04:23:05.048Z,2.38
2023-03-26T04:25:33.143Z,2.40
2023-03-26T04:28:06.393Z,1.90
2023-03-26T04:30:33.897Z,1.85
2023-03-26T04:33:03.803Z,2.13
2023-03-26T04:35:36.172Z,1.88
2023-03-26T04:38:06.202Z,1.88
2023-03-26T04:40:34.569Z,1.60
2023-03-26T04:43:02.341Z,2.15
2023-03-26T04:45:30.328Z,1.88
2023-03-26T04:47:58.117Z,2.20
2023-03-26T04:50:25.218Z,2.20
2023-03-26T04:52:53.117Z,1.83
2023-03-26T04:55:58.150Z,1.88
2023-03-26T04:58:30.176Z,2.00
2023-03-26T05:00:57.273Z,1.88
2023-03-26T05:03:23.674Z,2.60
2023-03-26T05:05:50.195Z,1.80
2023-03-26T05:08:16.492Z,1.80
2023-03-26T05:10:42.837Z,1.73
2023-03-26T05:13:09.098Z,1.90
2023-03-26T05:15:35.342Z,1.83
2023-03-26T05:18:01.771Z,1.50
2023-03-26T05:20:30.144Z,1.85
2023-03-26T05:22:56.935Z,1.58
2023-03-26T05:25:23.263Z,2.15
2023-03-26T05:27:49.582Z,2.00
2023-03-26T05:30:17.376Z,1.70
2023-03-26T05:32:43.753Z,1.55
2023-03-26T05:35:10.687Z,1.75
2023-03-26T05:37:38.790Z,1.95
2023-03-26T05:40:11.422Z,1.85
2023-03-26T05:42:38.758Z,2.55
2023-03-26T05:45:06.224Z,1.50
2023-03-26T05:47:32.684Z,2.30
2023-03-26T05:49:59.257Z,1.52
2023-03-26T05:52:25.934Z,1.50
2023-03-26T05:54:52.194Z,1.88
2023-03-26T05:57:18.834Z,1.75
2023-03-26T05:59:45.184Z,1.77
2023-03-26T06:02:11.493Z,2.13
2023-03-26T06:04:41.168Z,1.83
2023-03-26T06:07:10.644Z,1.70
2023-03-26T06:09:40.791Z,1.80
2023-03-26T06:12:08.163Z,1.50
2023-03-26T06:14:34.716Z,1.80
2023-03-26T06:17:01.155Z,1.30
2023-03-26T06:19:27.483Z,1.90
2023-03-26T06:21:53.783Z,1.77
2023-03-26T06:24:20.307Z,1.63
2023-03-26T06:26:47.160Z,1.63
2023-03-26T06:29:14.078Z,1.77
2023-03-26T06:31:40.799Z,1.60
2023-03-26T06:34:07.463Z,1.63
2023-03-26T06:36:33.762Z,1.50
2023-03-26T06:39:00.185Z,1.30
2023-03-26T06:41:34.564Z,1.70
2023-03-26T06:44:01.150Z,1.73
2023-03-26T06:46:27.591Z,1.50
2023-03-26T06:48:54.135Z,1.65
2023-03-26T06:51:20.479Z,1.70
2023-03-26T06:53:46.738Z,1.45
2023-03-26T06:56:13.065Z,1.20
2023-03-26T06:58:39.345Z,1.20
2023-03-26T07:01:05.861Z,1.77
2023-03-26T07:03:32.212Z,1.80
2023-03-26T07:05:58.544Z,1.50
2023-03-26T07:08:26.377Z,1.83
2023-03-26T07:10:53.148Z,1.65
2023-03-26T07:13:19.699Z,1.40
2023-03-26T07:15:47.782Z,1.60
2023-03-26T07:31:46.415Z,1.20
2023-03-26T07:34:18.609Z,1.60
2023-03-26T07:37:14.619Z,1.20
2023-03-26T07:39:52.469Z,1.50
2023-03-26T07:42:36.916Z,1.55
2023-03-26T07:45:22.064Z,1.35
2023-03-26T07:47:49.648Z,1.33
2023-03-26T07:50:18.401Z,1.55
2023-03-26T07:52:45.632Z,1.05
2023-03-26T07:55:13.144Z,1.80
2023-03-26T07:57:47.492Z,1.48
2023-03-26T08:00:17.629Z,1.50
2023-03-26T08:02:56.782Z,2.05
2023-03-26T08:05:31.701Z,1.80
2023-03-26T08:08:00.919Z,1.45
2023-03-26T08:10:31.451Z,1.50
2023-03-26T08:13:09.844Z,2.15
2023-03-26T08:15:41.858Z,2.00
2023-03-26T08:18:14.751Z,2.40
2023-03-26T08:20:47.812Z,2.72
2023-03-26T08:23:19.520Z,3.05
2023-03-26T08:25:51.746Z,3.10
2023-03-26T08:28:41.454Z,2.53
2023-03-26T08:31:09.710Z,3.10
2023-03-26T08:33:38.236Z,3.00
2023-03-26T08:36:04.983Z,2.97
2023-03-26T08:38:31.424Z,3.20
2023-03-26T08:41:06.807Z,2.63
2023-03-26T08:43:39.270Z,2.55
2023-03-26T08:46:08.350Z,3.28
2023-03-26T08:48:51.295Z,3.42
2023-03-26T08:51:18.061Z,3.15
2023-03-26T08:53:56.428Z,3.78
2023-03-26T08:56:26.119Z,3.60
2023-03-26T08:59:20.065Z,3.90
2023-03-26T09:01:52.537Z,4.25
2023-03-26T09:04:24.955Z,3.95
2023-03-26T09:07:10.240Z,4.85
2023-03-26T09:09:48.802Z,4.53
2023-03-26T09:12:28.230Z,5.00
2023-03-26T09:15:13.283Z,6.30
2023-03-26T09:17:51.849Z,6.53
2023-03-26T09:20:24.074Z,5.97
2023-03-26T09:23:00.359Z,6.43
2023-03-26T09:25:41.719Z,6.50
2023-03-26T09:28:22.004Z,6.72
2023-03-26T09:30:48.330Z,7.30
2023-03-26T09:33:52.182Z,6.80
2023-03-26T09:36:20.653Z,6.90
2023-03-26T09:38:56.472Z,7.55
2023-03-26T09:41:30.952Z,6.85
2023-03-26T09:44:16.033Z,7.15
2023-03-26T09:46:42.361Z,6.88
2023-03-26T09:49:17.188Z,6.65
2023-03-26T09:51:46.621Z,7.53
2023-03-26T09:54:35.924Z,7.22
2023-03-26T09:57:03.133Z,7.20
2023-03-26T09:59:47.517Z,7.82
2023-03-26T10:02:22.816Z,6.95
2023-03-26T10:05:20.080Z,6.03
2023-03-26T10:07:53.042Z,7.50
2023-03-26T10:10:37.898Z,7.63
2023-03-26T10:13:23.127Z,7.18
2023-03-26T10:15:55.312Z,8.15
2023-03-26T10:18:38.098Z,8.05
2023-03-26T10:21:26.171Z,7.32
2023-03-26T10:23:57.070Z,7.45
2023-03-26T10:26:38.439Z,7.50
2023-03-26T10:29:19.291Z,7.20
2023-03-26T10:31:46.142Z,6.38
2023-03-26T10:34:30.650Z,7.50
2023-03-26T10:37:12.257Z,6.50
2023-03-26T10:39:57.573Z,7.05
2023-03-26T10:42:29.829Z,6.88
2023-03-26T10:45:12.684Z,7.22
2023-03-26T10:47:50.940Z,7.03
2023-03-26T10:50:46.698Z,5.97
2023-03-26T10:53:25.781Z,5.68
2023-03-26T10:55:54.583Z,5.93
2023-03-26T10:58:25.476Z,5.97
2023-03-26T11:00:57.204Z,4.97
2023-03-26T11:03:45.406Z,5.60
2023-03-26T11:06:26.730Z,5.00
2023-03-26T11:08:56.638Z,5.60
2023-03-26T11:11:38.610Z,5.50
2023-03-26T11:14:11.098Z,5.15
2023-03-26T11:16:49.568Z,5.35
2023-03-26T11:19:19.505Z,5.75
2023-03-26T11:21:55.389Z,5.40
2023-03-26T11:24:40.171Z,6.13
2023-03-26T11:27:14.662Z,6.03
2023-03-26T11:30:03.790Z,5.30
2023-03-26T11:32:47.824Z,4.93
2023-03-26T11:35:40.235Z,5.30
2023-03-26T11:38:19.051Z,5.32
2023-03-26T11:40:50.642Z,5.10
2023-03-26T11:43:19.019Z,5.00
2023-03-26T11:45:46.497Z,4.38
2023-03-26T11:48:20.368Z,5.07
2023-03-26T11:50:51.677Z,5.53
2023-03-26T11:53:19.492Z,4.45
2023-03-26T11:55:55.819Z,5.30
2023-03-26T11:58:25.148Z,4.80
2023-03-26T12:00:53.031Z,5.10
2023-03-26T12:03:20.975Z,5.13
2023-03-26T12:05:49.173Z,4.75
2023-03-26T12:08:21.053Z,4.47
2023-03-26T12:10:58.367Z,3.80
2023-03-26T12:13:32.703Z,5.03
2023-03-26T12:16:01.070Z,4.35
2023-03-26T12:18:28.227Z,4.03
2023-03-26T12:21:04.787Z,3.95
2023-03-26T12:23:51.782Z,3.70
2023-03-26T12:26:20.756Z,3.80
2023-03-26T12:28:49.146Z,3.63
2023-03-26T12:31:18.060Z,3.60
2023-03-26T12:33:45.875Z,3.25
2023-03-26T12:36:17.241Z,3.60
2023-03-26T12:39:16.767Z,3.13
2023-03-26T12:44:44.185Z,3.78
2023-03-26T12:44:46.260Z,3.40
2023-03-26T12:47:58.244Z,3.30
2023-03-26T12:50:15.220Z,3.65
2023-03-26T12:52:59.712Z,3.22
2023-03-26T12:55:52.678Z,3.30
2023-03-26T12:58:28.499Z,3.25
2023-03-26T13:01:15.901Z,3.60
2023-03-26T13:03:57.725Z,3.42
2023-03-26T13:06:29.847Z,3.15
2023-03-26T13:09:28.841Z,3.33
2023-03-26T13:12:03.759Z,3.50
2023-03-26T13:14:48.897Z,3.38
2023-03-26T13:17:21.717Z,3.42
2023-03-26T13:19:48.052Z,3.03
2023-03-26T13:22:18.358Z,2.83
2023-03-26T13:24:53.650Z,3.20
2023-03-26T13:27:26.437Z,3.40
2023-03-26T13:29:57.463Z,2.92
2023-03-26T13:32:42.569Z,2.90
2023-03-26T13:35:09.090Z,2.50
2023-03-26T13:37:44.268Z,2.30
2023-03-26T13:40:17.042Z,1.90
2023-03-26T13:42:46.353Z,1.90
2023-03-26T13:45:33.247Z,2.00
2023-03-26T13:47:59.790Z,2.40
2023-03-26T13:50:30.886Z,2.20
2023-03-26T13:52:57.485Z,1.92
2023-03-26T13:55:27.100Z,1.90
2023-03-26T13:58:01.963Z,2.03
2023-03-26T14:00:54.471Z,1.80
2023-03-26T14:03:29.258Z,1.90
2023-03-26T14:05:57.259Z,1.52
2023-03-26T14:08:32.894Z,1.70
2023-03-26T14:11:06.264Z,1.60
2023-03-26T14:13:38.694Z,1.65
2023-03-26T14:16:14.307Z,1.67
2023-03-26T14:18:43.457Z,1.42
2023-03-26T14:21:16.614Z,1.60
2023-03-26T14:23:56.564Z,1.50
2023-03-26T14:26:26.495Z,1.48
2023-03-26T14:28:58.864Z,1.70
2023-03-26T14:31:44.178Z,1.52
2023-03-26T14:34:10.505Z,1.30
2023-03-26T14:36:52.977Z,1.92
2023-03-26T14:39:22.294Z,1.35
2023-03-26T14:41:56.655Z,1.50
2023-03-26T14:44:47.880Z,1.48
2023-03-26T14:47:15.916Z,1.40
2023-03-26T14:49:45.983Z,1.05
2023-03-26T14:52:31.606Z,1.60
2023-03-26T14:55:00.304Z,1.30
2023-03-26T14:57:26.516Z,1.27
2023-03-26T15:00:07.173Z,1.50
2023-03-26T15:02:54.221Z,1.27
2023-03-26T15:05:39.334Z,1.10
2023-03-26T15:08:24.473Z,0.90
2023-03-26T15:11:05.980Z,1.00
2023-03-26T15:13:41.978Z,1.02
2023-03-26T15:16:17.737Z,1.02
2023-03-26T15:19:02.967Z,1.00
2023-03-26T15:21:40.470Z,1.20
2023-03-26T15:24:06.743Z,1.13
2023-03-26T15:26:42.489Z,1.23
2023-03-26T15:29:14.949Z,1.20
2023-03-26T15:31:53.465Z,1.00
2023-03-26T15:34:39.158Z,1.33
2023-03-26T15:37:22.240Z,1.58
2023-03-26T15:40:08.008Z,1.42
2023-03-26T15:42:54.997Z,1.40
2023-03-26T15:45:30.738Z,1.30
2023-03-26T15:48:12.405Z,1.77
2023-03-26T15:50:47.889Z,1.50
2023-03-26T15:53:14.677Z,1.45
2023-03-26T15:55:43.695Z,1.88
2023-03-26T15:58:22.677Z,1.60
2023-03-26T16:00:51.840Z,1.83
2023-03-26T16:03:41.316Z,1.70
2023-03-26T16:06:15.811Z,1.80
2023-03-26T16:09:07.907Z,1.70
2023-03-26T16:11:53.186Z,1.45
2023-03-26T16:14:21.460Z,1.85
2023-03-26T16:16:59.102Z,2.08
2023-03-26T16:21:57.657Z,2.20
2023-03-26T16:24:25.695Z,2.10
2023-03-26T16:27:05.288Z,2.20
2023-03-26T16:29:32.008Z,2.45
2023-03-26T16:31:58.390Z,2.10
2023-03-26T16:34:48.159Z,2.50
2023-03-26T16:37:36.464Z,2.13
2023-03-26T16:40:18.705Z,2.20
2023-03-26T16:42:51.323Z,2.70
2023-03-26T16:45:22.876Z,2.53
2023-03-26T16:47:57.929Z,3.00
2023-03-26T16:50:29.919Z,2.83
2023-03-26T16:53:13.495Z,2.33
2023-03-26T16:55:46.360Z,2.70
2023-03-26T16:58:31.525Z,3.45
2023-03-26T17:01:11.615Z,2.40
2023-03-26T17:03:56.979Z,2.88
2023-03-26T17:06:26.553Z,2.53
2023-03-26T17:08:53.379Z,2.83
2023-03-26T17:11:24.086Z,2.10
2023-03-26T17:14:09.083Z,2.58
2023-03-26T17:16:42.019Z,2.55
2023-03-26T17:19:14.475Z,2.22
2023-03-26T17:21:55.514Z,2.38
2023-03-26T17:24:24.827Z,2.00
2023-03-26T17:26:55.325Z,2.30
2023-03-26T17:29:28.136Z,2.40
2023-03-26T17:32:03.381Z,2.63
2023-03-26T17:34:32.512Z,1.95
2023-03-26T17:36:59.002Z,2.78
2023-03-26T17:39:51.165Z,2.33
2023-03-26T17:42:19.010Z,2.28
2023-03-26T17:45:04.027Z,2.53
2023-03-26T17:47:43.584Z,2.25
2023-03-26T17:50:15.135Z,1.75
2023-03-26T17:52:47.929Z,2.20
2023-03-26T17:55:19.799Z,2.38
2023-03-26T17:57:49.933Z,2.33
2023-03-26T18:00:18.354Z,2.55
2023-03-26T18:02:47.589Z,2.13
2023-03-26T18:05:16.219Z,2.17
2023-03-26T18:07:51.438Z,2.60
2023-03-26T18:10:27.581Z,2.45
2023-03-26T18:13:15.255Z,1.95
2023-03-26T18:16:21.192Z,2.45
2023-03-26T18:19:00.644Z,2.92
2023-03-26T18:21:27.041Z,2.53
2023-03-26T18:23:53.657Z,2.47
2023-03-26T18:26:32.247Z,3.20
2023-03-26T18:29:18.210Z,2.13
2023-03-26T18:31:45.742Z,3.08
2023-03-26T18:34:13.453Z,2.60
2023-03-26T18:36:39.837Z,2.15
2023-03-26T18:39:10.164Z,3.08
2023-03-26T18:41:39.288Z,2.40
2023-03-26T18:44:07.762Z,1.95
2023-03-26T18:46:34.185Z,2.45
2023-03-26T18:49:01.308Z,2.30
2023-03-26T18:51:29.429Z,2.22
2023-03-26T18:53:59.289Z,2.78
2023-03-26T18:56:31.854Z,2.25
2023-03-26T18:58:59.683Z,2.67
2023-03-26T19:01:30.652Z,2.65
2023-03-26T19:04:03.795Z,2.00
2023-03-26T19:06:35.705Z,2.47
2023-03-26T19:11:36.878Z,2.83
2023-03-26T19:14:07.951Z,1.92
2023-03-26T19:16:36.875Z,2.25
2023-03-26T19:19:06.205Z,2.13
2023-03-26T19:21:33.785Z,2.83
2023-03-26T19:24:00.697Z,2.15
2023-03-26T19:26:27.461Z,2.92
2023-03-26T19:28:55.904Z,2.92
2023-03-26T19:31:27.843Z,3.05
2023-03-26T19:33:57.032Z,3.65
2023-03-26T19:36:24.953Z,2.20
2023-03-26T19:38:52.743Z,2.40
2023-03-26T19:41:21.071Z,2.47
2023-03-26T19:43:51.452Z,2.80
2023-03-26T19:46:19.291Z,2.60
2023-03-26T19:48:47.283Z,2.38
2023-03-26T19:51:21.757Z,2.17
2023-03-26T19:53:55.008Z,3.15
2023-03-26T19:56:22.189Z,2.72
2023-03-26T19:58:51.617Z,2.42
2023-03-26T20:01:25.033Z,2.42
2023-03-26T20:03:54.212Z,1.90
2023-03-26T20:06:30.908Z,2.47
2023-03-26T20:09:01.070Z,2.10
2023-03-26T20:11:33.291Z,1.52
2023-03-26T20:14:00.722Z,2.80
2023-03-26T20:16:29.032Z,1.92
2023-03-26T20:18:57.520Z,2.03
2023-03-26T20:21:24.669Z,2.33
2023-03-26T20:23:54.636Z,1.63
2023-03-26T20:26:21.920Z,1.73
2023-03-26T20:28:52.927Z,2.28
2023-03-26T20:31:21.950Z,1.50
2023-03-26T20:33:51.972Z,1.50
2023-03-26T20:36:33.384Z,1.70
2023-03-26T20:39:01.836Z,1.98
2023-03-26T20:41:28.992Z,1.67
2023-03-26T20:43:55.595Z,1.60
2023-03-26T20:46:23.605Z,1.45
2023-03-26T20:48:58.014Z,2.00
2023-03-26T20:51:24.494Z,1.65
2023-03-26T20:53:50.788Z,1.85
2023-03-26T20:56:18.463Z,1.73
2023-03-26T20:58:45.425Z,2.28
2023-03-26T21:01:15.039Z,1.33
2023-03-26T21:03:44.000Z,1.77
2023-03-26T21:06:13.395Z,1.50
2023-03-26T21:08:40.538Z,1.85
2023-03-26T21:11:15.949Z,1.80
2023-03-26T21:14:00.019Z,1.87
2023-03-26T21:16:26.817Z,1.73
2023-03-26T21:18:53.388Z,2.10
2023-03-26T21:21:25.587Z,1.67
2023-03-26T21:23:59.231Z,1.42
2023-03-26T21:26:41.657Z,2.22
2023-03-26T21:29:08.502Z,1.45
2023-03-26T21:31:37.626Z,1.80
2023-03-26T21:34:05.415Z,1.40
2023-03-26T21:36:32.271Z,2.00
2023-03-26T21:38:58.778Z,1.50
2023-03-26T21:41:30.861Z,1.38
2023-03-26T21:43:59.479Z,1.55
2023-03-26T21:46:26.017Z,1.52
2023-03-26T21:48:52.485Z,1.50
2023-03-26T21:51:19.029Z,1.70
2023-03-26T21:53:45.822Z,1.60
2023-03-26T21:56:12.099Z,1.17
2023-03-26T21:58:38.359Z,1.35
2023-03-26T22:01:31.190Z,1.55
2023-03-26T22:04:07.874Z,1.60
2023-03-26T22:06:45.972Z,1.63
2023-03-26T22:09:12.925Z,1.42
2023-03-26T22:11:41.976Z,1.40
2023-03-26T22:14:08.490Z,1.20
2023-03-26T22:16:34.993Z,1.70
2023-03-26T22:19:01.226Z,1.30
2023-03-26T22:21:27.627Z,1.90
2023-03-26T22:23:53.998Z,1.42
2023-03-26T22:26:22.187Z,1.55
2023-03-26T22:28:49.176Z,1.75
2023-03-26T22:31:15.616Z,1.77
2023-03-26T22:33:42.813Z,1.55
2023-03-26T22:36:22.712Z,1.27
2023-03-26T22:38:52.857Z,1.85
2023-03-26T22:41:19.157Z,1.35
2023-03-26T22:43:46.400Z,1.70
2023-03-26T22:46:13.686Z,1.40
2023-03-26T22:48:40.723Z,1.20
2023-03-26T22:51:08.352Z,1.65
2023-03-26T22:53:34.715Z,1.50
2023-03-26T22:56:01.155Z,1.55
2023-03-26T22:58:28.457Z,1.67
2023-03-26T23:01:15.374Z,1.50
2023-03-26T23:03:41.998Z,1.20
2023-03-26T23:06:10.137Z,1.58
2023-03-26T23:08:38.054Z,1.15
2023-03-26T23:11:22.564Z,1.55
2023-03-26T23:13:48.959Z,1.02
2023-03-26T23:16:16.177Z,1.20
2023-03-26T23:18:42.508Z,1.10
2023-03-26T23:21:13.454Z,1.27
2023-03-26T23:23:39.880Z,1.30
2023-03-26T23:26:06.826Z,1.50
2023-03-26T23:28:33.924Z,1.25
2023-03-26T23:31:02.242Z,1.85
2023-03-26T23:33:30.404Z,1.40
2023-03-26T23:35:58.483Z,1.40
2023-03-26T23:38:25.233Z,1.63
2023-03-26T23:40:57.306Z,1.60
2023-03-26T23:43:24.679Z,1.55
2023-03-26T23:45:51.087Z,1.30
2023-03-26T23:48:22.027Z,1.50
2023-03-26T23:50:52.699Z,1.60
2023-03-26T23:53:30.517Z,1.42
2023-03-26T23:55:59.767Z,1.42
2023-03-26T23:58:29.956Z,1.50
